sensor_id;sensor_type;location;lat;lon;timestamp;P1;durP1;ratioP1;P2;durP2;ratioP2
23140;SDS011;11739;54.750;9.124;2022-07-22T00:02:22;10.48;;;4.05;;
23140;SDS011;11739;54.750;9.124;2022-07-22T00:04:49;14.65;;;4.53;;
23140;SDS011;11739;54.750;9.124;2022-07-22T00:07:15;9.55;;;3.90;;
23140;SDS011;11739;54.750;9.124;2022-07-22T00:09:42;10.45;;;3.72;;
23140;SDS011;11739;54.750;9.124;2022-07-22T00:12:08;9.82;;;3.88;;
23140;SDS011;11739;54.750;9.124;2022-07-22T00:14:35;15.57;;;3.95;;
23140;SDS011;11739;54.750;9.124;2022-07-22T00:17:02;9.32;;;3.83;;
23140;SDS011;11739;54.750;9.124;2022-07-22T00:19:28;7.72;;;3.65;;
23140;SDS011;11739;54.750;9.124;2022-07-22T00:21:55;9.13;;;3.30;;
23140;SDS011;11739;54.750;9.124;2022-07-22T00:24:21;7.40;;;3.35;;
23140;SDS011;11739;54.750;9.124;2022-07-22T00:26:48;8.15;;;3.70;;
23140;SDS011;11739;54.750;9.124;2022-07-22T00:29:14;9.90;;;3.75;;
23140;SDS011;11739;54.750;9.124;2022-07-22T00:31:41;11.10;;;3.50;;
23140;SDS011;11739;54.750;9.124;2022-07-22T00:34:07;7.82;;;3.88;;
23140;SDS011;11739;54.750;9.124;2022-07-22T00:36:34;6.55;;;3.88;;
23140;SDS011;11739;54.750;9.124;2022-07-22T00:39:00;9.13;;;3.40;;
23140;SDS011;11739;54.750;9.124;2022-07-22T00:41:27;8.07;;;3.63;;
23140;SDS011;11739;54.750;9.124;2022-07-22T00:43:54;9.52;;;3.78;;
23140;SDS011;11739;54.750;9.124;2022-07-22T00:46:25;11.95;;;4.15;;
23140;SDS011;11739;54.750;9.124;2022-07-22T00:48:53;14.13;;;4.68;;
23140;SDS011;11739;54.750;9.124;2022-07-22T00:51:20;8.70;;;3.75;;
23140;SDS011;11739;54.750;9.124;2022-07-22T00:53:48;14.07;;;4.40;;
23140;SDS011;11739;54.750;9.124;2022-07-22T00:56:15;11.00;;;4.28;;
23140;SDS011;11739;54.750;9.124;2022-07-22T00:58:42;11.35;;;4.07;;
23140;SDS011;11739;54.750;9.124;2022-07-22T01:01:09;8.90;;;4.40;;
23140;SDS011;11739;54.750;9.124;2022-07-22T01:03:36;9.57;;;4.10;;
23140;SDS011;11739;54.750;9.124;2022-07-22T01:06:05;12.77;;;4.88;;
23140;SDS011;11739;54.750;9.124;2022-07-22T01:08:32;12.70;;;4.70;;
23140;SDS011;11739;54.750;9.124;2022-07-22T01:11:06;15.18;;;4.72;;
23140;SDS011;11739;54.750;9.124;2022-07-22T01:13:36;12.55;;;5.25;;
23140;SDS011;11739;54.750;9.124;2022-07-22T01:16:03;12.75;;;4.60;;
23140;SDS011;11739;54.750;9.124;2022-07-22T01:18:31;13.98;;;4.28;;
23140;SDS011;11739;54.750;9.124;2022-07-22T01:20:58;13.20;;;4.80;;
23140;SDS011;11739;54.750;9.124;2022-07-22T01:23:24;9.13;;;4.53;;
23140;SDS011;11739;54.750;9.124;2022-07-22T01:25:51;12.98;;;5.07;;
23140;SDS011;11739;54.750;9.124;2022-07-22T01:28:19;10.52;;;4.00;;
23140;SDS011;11739;54.750;9.124;2022-07-22T01:30:45;9.80;;;4.45;;
23140;SDS011;11739;54.750;9.124;2022-07-22T01:33:12;11.27;;;4.47;;
23140;SDS011;11739;54.750;9.124;2022-07-22T01:35:39;16.23;;;5.10;;
23140;SDS011;11739;54.750;9.124;2022-07-22T01:38:06;12.15;;;4.70;;
23140;SDS011;11739;54.750;9.124;2022-07-22T01:40:32;12.75;;;4.53;;
23140;SDS011;11739;54.750;9.124;2022-07-22T01:42:59;12.75;;;4.82;;
23140;SDS011;11739;54.750;9.124;2022-07-22T01:45:25;17.25;;;5.00;;
23140;SDS011;11739;54.750;9.124;2022-07-22T01:47:52;9.50;;;3.80;;
23140;SDS011;11739;54.750;9.124;2022-07-22T01:50:18;15.25;;;4.28;;
23140;SDS011;11739;54.750;9.124;2022-07-22T01:52:45;10.32;;;4.28;;
23140;SDS011;11739;54.750;9.124;2022-07-22T01:55:11;8.77;;;4.00;;
23140;SDS011;11739;54.750;9.124;2022-07-22T01:57:38;10.40;;;4.22;;
23140;SDS011;11739;54.750;9.124;2022-07-22T02:00:05;12.95;;;4.60;;
23140;SDS011;11739;54.750;9.124;2022-07-22T02:02:34;12.13;;;4.18;;
23140;SDS011;11739;54.750;9.124;2022-07-22T02:05:01;11.55;;;4.50;;
23140;SDS011;11739;54.750;9.124;2022-07-22T02:07:28;9.23;;;4.13;;
23140;SDS011;11739;54.750;9.124;2022-07-22T02:09:55;13.68;;;4.47;;
23140;SDS011;11739;54.750;9.124;2022-07-22T02:12:22;13.68;;;4.65;;
23140;SDS011;11739;54.750;9.124;2022-07-22T02:14:48;12.90;;;4.60;;
23140;SDS011;11739;54.750;9.124;2022-07-22T02:17:15;12.35;;;4.18;;
23140;SDS011;11739;54.750;9.124;2022-07-22T02:19:42;12.63;;;4.10;;
23140;SDS011;11739;54.750;9.124;2022-07-22T02:22:08;10.48;;;4.00;;
23140;SDS011;11739;54.750;9.124;2022-07-22T02:24:36;11.93;;;4.07;;
23140;SDS011;11739;54.750;9.124;2022-07-22T02:27:02;14.23;;;4.28;;
23140;SDS011;11739;54.750;9.124;2022-07-22T02:29:30;10.85;;;4.20;;
23140;SDS011;11739;54.750;9.124;2022-07-22T02:31:57;12.55;;;4.18;;
23140;SDS011;11739;54.750;9.124;2022-07-22T02:34:24;9.50;;;3.83;;
23140;SDS011;11739;54.750;9.124;2022-07-22T02:36:51;15.35;;;4.40;;
23140;SDS011;11739;54.750;9.124;2022-07-22T02:39:18;15.35;;;4.68;;
23140;SDS011;11739;54.750;9.124;2022-07-22T02:41:44;10.25;;;3.80;;
23140;SDS011;11739;54.750;9.124;2022-07-22T02:44:11;13.82;;;4.22;;
23140;SDS011;11739;54.750;9.124;2022-07-22T02:46:37;13.10;;;4.55;;
23140;SDS011;11739;54.750;9.124;2022-07-22T02:49:04;8.40;;;4.13;;
23140;SDS011;11739;54.750;9.124;2022-07-22T02:51:31;10.75;;;3.85;;
23140;SDS011;11739;54.750;9.124;2022-07-22T02:53:58;12.60;;;4.18;;
23140;SDS011;11739;54.750;9.124;2022-07-22T02:56:24;14.05;;;4.45;;
23140;SDS011;11739;54.750;9.124;2022-07-22T02:58:51;11.90;;;4.13;;
23140;SDS011;11739;54.750;9.124;2022-07-22T03:01:19;12.80;;;4.10;;
23140;SDS011;11739;54.750;9.124;2022-07-22T03:03:46;13.95;;;4.40;;
23140;SDS011;11739;54.750;9.124;2022-07-22T03:06:13;12.80;;;4.22;;
23140;SDS011;11739;54.750;9.124;2022-07-22T03:08:39;11.60;;;3.90;;
23140;SDS011;11739;54.750;9.124;2022-07-22T03:11:06;12.73;;;3.95;;
23140;SDS011;11739;54.750;9.124;2022-07-22T03:13:32;13.98;;;4.32;;
23140;SDS011;11739;54.750;9.124;2022-07-22T03:15:59;9.45;;;3.67;;
23140;SDS011;11739;54.750;9.124;2022-07-22T03:18:25;14.05;;;4.93;;
23140;SDS011;11739;54.750;9.124;2022-07-22T03:20:52;11.73;;;3.97;;
23140;SDS011;11739;54.750;9.124;2022-07-22T03:23:18;15.15;;;4.63;;
23140;SDS011;11739;54.750;9.124;2022-07-22T03:25:45;10.88;;;4.03;;
23140;SDS011;11739;54.750;9.124;2022-07-22T03:28:11;11.82;;;4.45;;
23140;SDS011;11739;54.750;9.124;2022-07-22T03:30:38;12.25;;;4.20;;
23140;SDS011;11739;54.750;9.124;2022-07-22T03:33:04;15.32;;;4.30;;
23140;SDS011;11739;54.750;9.124;2022-07-22T03:35:31;14.07;;;4.47;;
23140;SDS011;11739;54.750;9.124;2022-07-22T03:37:58;14.70;;;5.03;;
23140;SDS011;11739;54.750;9.124;2022-07-22T03:40:24;15.85;;;4.80;;
23140;SDS011;11739;54.750;9.124;2022-07-22T03:42:51;12.40;;;4.10;;
23140;SDS011;11739;54.750;9.124;2022-07-22T03:45:17;16.17;;;5.05;;
23140;SDS011;11739;54.750;9.124;2022-07-22T03:47:44;11.50;;;3.80;;
23140;SDS011;11739;54.750;9.124;2022-07-22T03:50:10;16.83;;;4.32;;
23140;SDS011;11739;54.750;9.124;2022-07-22T03:52:37;14.73;;;4.38;;
23140;SDS011;11739;54.750;9.124;2022-07-22T03:55:04;11.98;;;3.92;;
23140;SDS011;11739;54.750;9.124;2022-07-22T03:57:31;12.02;;;4.50;;
23140;SDS011;11739;54.750;9.124;2022-07-22T03:59:57;13.60;;;4.18;;
23140;SDS011;11739;54.750;9.124;2022-07-22T04:02:24;13.13;;;4.18;;
23140;SDS011;11739;54.750;9.124;2022-07-22T04:04:50;19.63;;;4.93;;
23140;SDS011;11739;54.750;9.124;2022-07-22T04:07:17;12.88;;;4.47;;
23140;SDS011;11739;54.750;9.124;2022-07-22T04:09:43;16.98;;;4.50;;
23140;SDS011;11739;54.750;9.124;2022-07-22T04:12:10;10.05;;;3.85;;
23140;SDS011;11739;54.750;9.124;2022-07-22T04:14:36;12.13;;;4.35;;
23140;SDS011;11739;54.750;9.124;2022-07-22T04:17:03;15.57;;;4.78;;
23140;SDS011;11739;54.750;9.124;2022-07-22T04:19:29;17.02;;;4.82;;
23140;SDS011;11739;54.750;9.124;2022-07-22T04:21:56;16.52;;;4.47;;
23140;SDS011;11739;54.750;9.124;2022-07-22T04:24:22;17.95;;;4.57;;
23140;SDS011;11739;54.750;9.124;2022-07-22T04:26:49;10.63;;;3.60;;
23140;SDS011;11739;54.750;9.124;2022-07-22T04:29:15;12.65;;;3.80;;
23140;SDS011;11739;54.750;9.124;2022-07-22T04:31:42;11.07;;;4.38;;
23140;SDS011;11739;54.750;9.124;2022-07-22T04:34:09;14.48;;;4.13;;
23140;SDS011;11739;54.750;9.124;2022-07-22T04:36:35;19.17;;;5.15;;
23140;SDS011;11739;54.750;9.124;2022-07-22T04:39:02;14.13;;;4.40;;
23140;SDS011;11739;54.750;9.124;2022-07-22T04:41:28;10.73;;;4.13;;
23140;SDS011;11739;54.750;9.124;2022-07-22T04:43:55;17.88;;;4.75;;
23140;SDS011;11739;54.750;9.124;2022-07-22T04:46:21;16.15;;;5.13;;
23140;SDS011;11739;54.750;9.124;2022-07-22T04:48:48;15.10;;;4.55;;
23140;SDS011;11739;54.750;9.124;2022-07-22T04:51:14;13.93;;;4.03;;
23140;SDS011;11739;54.750;9.124;2022-07-22T04:53:41;10.27;;;3.70;;
23140;SDS011;11739;54.750;9.124;2022-07-22T04:56:13;13.45;;;4.25;;
23140;SDS011;11739;54.750;9.124;2022-07-22T04:58:39;16.63;;;3.75;;
23140;SDS011;11739;54.750;9.124;2022-07-22T05:01:06;8.57;;;3.55;;
23140;SDS011;11739;54.750;9.124;2022-07-22T05:03:32;17.17;;;4.07;;
23140;SDS011;11739;54.750;9.124;2022-07-22T05:06:01;12.32;;;3.47;;
23140;SDS011;11739;54.750;9.124;2022-07-22T05:08:27;17.05;;;3.75;;
23140;SDS011;11739;54.750;9.124;2022-07-22T05:10:54;13.02;;;3.30;;
23140;SDS011;11739;54.750;9.124;2022-07-22T05:13:20;13.30;;;4.13;;
23140;SDS011;11739;54.750;9.124;2022-07-22T05:15:47;14.98;;;4.00;;
23140;SDS011;11739;54.750;9.124;2022-07-22T05:18:14;11.68;;;3.85;;
23140;SDS011;11739;54.750;9.124;2022-07-22T05:20:40;14.20;;;3.50;;
23140;SDS011;11739;54.750;9.124;2022-07-22T05:23:07;13.15;;;3.55;;
23140;SDS011;11739;54.750;9.124;2022-07-22T05:25:33;10.65;;;3.72;;
23140;SDS011;11739;54.750;9.124;2022-07-22T05:28:00;10.65;;;3.53;;
23140;SDS011;11739;54.750;9.124;2022-07-22T05:30:27;16.73;;;4.15;;
23140;SDS011;11739;54.750;9.124;2022-07-22T05:32:53;12.27;;;3.55;;
23140;SDS011;11739;54.750;9.124;2022-07-22T05:35:20;13.13;;;3.17;;
23140;SDS011;11739;54.750;9.124;2022-07-22T05:37:47;14.25;;;3.63;;
23140;SDS011;11739;54.750;9.124;2022-07-22T05:40:13;12.43;;;3.10;;
23140;SDS011;11739;54.750;9.124;2022-07-22T05:42:40;10.77;;;3.30;;
23140;SDS011;11739;54.750;9.124;2022-07-22T05:45:07;8.57;;;3.33;;
23140;SDS011;11739;54.750;9.124;2022-07-22T05:47:34;17.20;;;3.65;;
23140;SDS011;11739;54.750;9.124;2022-07-22T05:50:00;12.90;;;3.22;;
23140;SDS011;11739;54.750;9.124;2022-07-22T05:52:27;13.00;;;3.25;;
23140;SDS011;11739;54.750;9.124;2022-07-22T05:54:54;9.20;;;3.03;;
23140;SDS011;11739;54.750;9.124;2022-07-22T05:57:20;11.25;;;3.10;;
23140;SDS011;11739;54.750;9.124;2022-07-22T05:59:47;11.02;;;3.30;;
23140;SDS011;11739;54.750;9.124;2022-07-22T06:02:13;13.10;;;3.15;;
23140;SDS011;11739;54.750;9.124;2022-07-22T06:04:40;10.20;;;3.70;;
23140;SDS011;11739;54.750;9.124;2022-07-22T06:07:09;12.07;;;3.60;;
23140;SDS011;11739;54.750;9.124;2022-07-22T06:09:36;11.65;;;3.13;;
23140;SDS011;11739;54.750;9.124;2022-07-22T06:12:03;10.38;;;3.20;;
23140;SDS011;11739;54.750;9.124;2022-07-22T06:14:30;9.65;;;3.15;;
23140;SDS011;11739;54.750;9.124;2022-07-22T06:16:56;9.35;;;2.90;;
23140;SDS011;11739;54.750;9.124;2022-07-22T06:19:23;12.93;;;3.10;;
23140;SDS011;11739;54.750;9.124;2022-07-22T06:21:50;13.95;;;3.10;;
23140;SDS011;11739;54.750;9.124;2022-07-22T06:24:17;10.57;;;3.42;;
23140;SDS011;11739;54.750;9.124;2022-07-22T06:26:44;14.55;;;3.28;;
23140;SDS011;11739;54.750;9.124;2022-07-22T06:29:10;9.23;;;2.80;;
23140;SDS011;11739;54.750;9.124;2022-07-22T06:31:37;16.88;;;3.45;;
23140;SDS011;11739;54.750;9.124;2022-07-22T06:34:03;12.20;;;3.40;;
23140;SDS011;11739;54.750;9.124;2022-07-22T06:36:32;13.00;;;3.15;;
23140;SDS011;11739;54.750;9.124;2022-07-22T06:38:58;12.60;;;3.00;;
23140;SDS011;11739;54.750;9.124;2022-07-22T06:41:26;12.20;;;3.28;;
23140;SDS011;11739;54.750;9.124;2022-07-22T06:43:53;10.65;;;3.13;;
23140;SDS011;11739;54.750;9.124;2022-07-22T06:46:19;11.93;;;3.17;;
23140;SDS011;11739;54.750;9.124;2022-07-22T06:48:46;10.45;;;3.00;;
23140;SDS011;11739;54.750;9.124;2022-07-22T06:51:13;11.05;;;2.60;;
23140;SDS011;11739;54.750;9.124;2022-07-22T06:53:41;10.35;;;2.80;;
23140;SDS011;11739;54.750;9.124;2022-07-22T06:56:14;10.60;;;2.83;;
23140;SDS011;11739;54.750;9.124;2022-07-22T06:58:41;14.43;;;3.08;;
23140;SDS011;11739;54.750;9.124;2022-07-22T07:01:08;8.25;;;2.75;;
23140;SDS011;11739;54.750;9.124;2022-07-22T07:03:35;13.10;;;3.28;;
23140;SDS011;11739;54.750;9.124;2022-07-22T07:06:02;9.13;;;2.45;;
23140;SDS011;11739;54.750;9.124;2022-07-22T07:08:29;8.68;;;2.72;;
23140;SDS011;11739;54.750;9.124;2022-07-22T07:10:56;10.27;;;2.78;;
23140;SDS011;11739;54.750;9.124;2022-07-22T07:13:22;8.73;;;2.58;;
23140;SDS011;11739;54.750;9.124;2022-07-22T07:15:49;8.27;;;2.75;;
23140;SDS011;11739;54.750;9.124;2022-07-22T07:18:15;11.68;;;2.65;;
23140;SDS011;11739;54.750;9.124;2022-07-22T07:20:43;12.10;;;2.58;;
23140;SDS011;11739;54.750;9.124;2022-07-22T07:23:09;8.25;;;2.13;;
23140;SDS011;11739;54.750;9.124;2022-07-22T07:25:37;8.30;;;2.70;;
23140;SDS011;11739;54.750;9.124;2022-07-22T07:28:04;7.57;;;2.75;;
23140;SDS011;11739;54.750;9.124;2022-07-22T07:30:31;6.72;;;2.50;;
23140;SDS011;11739;54.750;9.124;2022-07-22T07:32:58;9.75;;;2.90;;
23140;SDS011;11739;54.750;9.124;2022-07-22T07:35:26;9.50;;;2.95;;
23140;SDS011;11739;54.750;9.124;2022-07-22T07:37:57;10.95;;;2.60;;
23140;SDS011;11739;54.750;9.124;2022-07-22T07:40:23;12.20;;;2.88;;
23140;SDS011;11739;54.750;9.124;2022-07-22T07:42:50;10.60;;;2.50;;
23140;SDS011;11739;54.750;9.124;2022-07-22T07:45:27;12.52;;;2.92;;
23140;SDS011;11739;54.750;9.124;2022-07-22T07:47:54;10.15;;;2.72;;
23140;SDS011;11739;54.750;9.124;2022-07-22T07:50:21;13.10;;;3.20;;
23140;SDS011;11739;54.750;9.124;2022-07-22T07:52:47;7.68;;;2.10;;
23140;SDS011;11739;54.750;9.124;2022-07-22T07:55:19;8.88;;;2.55;;
23140;SDS011;11739;54.750;9.124;2022-07-22T07:57:46;9.02;;;2.38;;
23140;SDS011;11739;54.750;9.124;2022-07-22T08:00:17;9.68;;;2.45;;
23140;SDS011;11739;54.750;9.124;2022-07-22T08:02:46;9.32;;;2.65;;
23140;SDS011;11739;54.750;9.124;2022-07-22T08:05:14;6.05;;;2.45;;
23140;SDS011;11739;54.750;9.124;2022-07-22T08:07:41;5.38;;;2.10;;
23140;SDS011;11739;54.750;9.124;2022-07-22T08:10:08;9.55;;;2.45;;
23140;SDS011;11739;54.750;9.124;2022-07-22T08:12:56;6.78;;;2.17;;
23140;SDS011;11739;54.750;9.124;2022-07-22T08:15:24;7.97;;;2.50;;
23140;SDS011;11739;54.750;9.124;2022-07-22T08:17:52;10.85;;;2.33;;
23140;SDS011;11739;54.750;9.124;2022-07-22T08:20:19;9.90;;;2.58;;
23140;SDS011;11739;54.750;9.124;2022-07-22T08:22:48;8.52;;;2.40;;
23140;SDS011;11739;54.750;9.124;2022-07-22T08:25:15;9.27;;;2.53;;
23140;SDS011;11739;54.750;9.124;2022-07-22T08:27:41;9.23;;;2.33;;
23140;SDS011;11739;54.750;9.124;2022-07-22T08:30:08;6.20;;;2.15;;
23140;SDS011;11739;54.750;9.124;2022-07-22T08:32:35;8.25;;;2.58;;
23140;SDS011;11739;54.750;9.124;2022-07-22T08:35:02;8.40;;;2.08;;
23140;SDS011;11739;54.750;9.124;2022-07-22T08:37:29;8.77;;;2.25;;
23140;SDS011;11739;54.750;9.124;2022-07-22T08:39:56;6.82;;;2.22;;
23140;SDS011;11739;54.750;9.124;2022-07-22T08:42:22;8.73;;;2.60;;
23140;SDS011;11739;54.750;9.124;2022-07-22T08:44:50;9.13;;;2.45;;
23140;SDS011;11739;54.750;9.124;2022-07-22T08:47:22;8.95;;;2.30;;
23140;SDS011;11739;54.750;9.124;2022-07-22T08:50:07;8.05;;;2.20;;
23140;SDS011;11739;54.750;9.124;2022-07-22T08:52:34;8.85;;;2.58;;
23140;SDS011;11739;54.750;9.124;2022-07-22T08:55:04;7.65;;;2.35;;
23140;SDS011;11739;54.750;9.124;2022-07-22T08:57:32;7.32;;;2.03;;
23140;SDS011;11739;54.750;9.124;2022-07-22T08:59:59;6.28;;;1.88;;
23140;SDS011;11739;54.750;9.124;2022-07-22T09:02:26;7.28;;;2.20;;
23140;SDS011;11739;54.750;9.124;2022-07-22T09:07:27;6.63;;;2.30;;
23140;SDS011;11739;54.750;9.124;2022-07-22T09:09:55;6.45;;;1.95;;
23140;SDS011;11739;54.750;9.124;2022-07-22T09:12:22;6.93;;;2.67;;
23140;SDS011;11739;54.750;9.124;2022-07-22T09:14:55;9.57;;;2.00;;
23140;SDS011;11739;54.750;9.124;2022-07-22T09:19:55;6.00;;;2.05;;
23140;SDS011;11739;54.750;9.124;2022-07-22T09:22:39;4.10;;;1.73;;
23140;SDS011;11739;54.750;9.124;2022-07-22T09:30:36;6.10;;;2.00;;
23140;SDS011;11739;54.750;9.124;2022-07-22T09:33:05;8.88;;;2.50;;
23140;SDS011;11739;54.750;9.124;2022-07-22T09:35:34;7.35;;;2.30;;
23140;SDS011;11739;54.750;9.124;2022-07-22T09:38:02;6.75;;;1.85;;
23140;SDS011;11739;54.750;9.124;2022-07-22T09:40:31;6.03;;;2.17;;
23140;SDS011;11739;54.750;9.124;2022-07-22T09:43:00;7.13;;;2.13;;
23140;SDS011;11739;54.750;9.124;2022-07-22T09:45:44;8.07;;;2.30;;
23140;SDS011;11739;54.750;9.124;2022-07-22T09:48:25;4.97;;;2.08;;
23140;SDS011;11739;54.750;9.124;2022-07-22T09:50:53;9.02;;;2.40;;
23140;SDS011;11739;54.750;9.124;2022-07-22T09:53:22;8.88;;;2.30;;
23140;SDS011;11739;54.750;9.124;2022-07-22T09:55:54;6.05;;;1.70;;
23140;SDS011;11739;54.750;9.124;2022-07-22T09:58:21;6.00;;;1.70;;
23140;SDS011;11739;54.750;9.124;2022-07-22T10:00:47;6.47;;;1.73;;
23140;SDS011;11739;54.750;9.124;2022-07-22T10:03:21;3.92;;;1.48;;
23140;SDS011;11739;54.750;9.124;2022-07-22T10:05:51;7.50;;;1.75;;
23140;SDS011;11739;54.750;9.124;2022-07-22T10:08:18;4.75;;;1.33;;
23140;SDS011;11739;54.750;9.124;2022-07-22T10:10:45;5.38;;;1.77;;
23140;SDS011;11739;54.750;9.124;2022-07-22T10:13:11;7.38;;;2.25;;
23140;SDS011;11739;54.750;9.124;2022-07-22T10:15:38;7.20;;;2.28;;
23140;SDS011;11739;54.750;9.124;2022-07-22T10:18:06;9.73;;;2.10;;
23140;SDS011;11739;54.750;9.124;2022-07-22T10:20:34;6.75;;;2.10;;
23140;SDS011;11739;54.750;9.124;2022-07-22T10:23:05;4.93;;;1.85;;
23140;SDS011;11739;54.750;9.124;2022-07-22T10:25:49;4.40;;;1.55;;
23140;SDS011;11739;54.750;9.124;2022-07-22T10:30:54;6.18;;;2.35;;
23140;SDS011;11739;54.750;9.124;2022-07-22T10:33:43;6.70;;;1.80;;
23140;SDS011;11739;54.750;9.124;2022-07-22T10:36:11;7.93;;;1.70;;
23140;SDS011;11739;54.750;9.124;2022-07-22T10:38:40;6.03;;;1.65;;
23140;SDS011;11739;54.750;9.124;2022-07-22T10:41:32;5.13;;;1.83;;
23140;SDS011;11739;54.750;9.124;2022-07-22T10:44:00;5.57;;;1.63;;
23140;SDS011;11739;54.750;9.124;2022-07-22T10:46:46;6.47;;;1.85;;
23140;SDS011;11739;54.750;9.124;2022-07-22T10:49:18;5.78;;;1.63;;
23140;SDS011;11739;54.750;9.124;2022-07-22T10:57:43;3.83;;;1.52;;
23140;SDS011;11739;54.750;9.124;2022-07-22T11:00:10;5.15;;;1.52;;
23140;SDS011;11739;54.750;9.124;2022-07-22T11:02:37;6.45;;;1.65;;
23140;SDS011;11739;54.750;9.124;2022-07-22T11:05:04;6.20;;;1.80;;
23140;SDS011;11739;54.750;9.124;2022-07-22T11:07:31;4.13;;;1.35;;
23140;SDS011;11739;54.750;9.124;2022-07-22T11:10:13;6.75;;;1.90;;
23140;SDS011;11739;54.750;9.124;2022-07-22T11:12:45;6.15;;;2.00;;
23140;SDS011;11739;54.750;9.124;2022-07-22T11:15:12;9.48;;;2.50;;
23140;SDS011;11739;54.750;9.124;2022-07-22T11:17:39;6.88;;;1.85;;
23140;SDS011;11739;54.750;9.124;2022-07-22T11:20:07;8.15;;;2.10;;
23140;SDS011;11739;54.750;9.124;2022-07-22T11:22:35;6.60;;;2.10;;
23140;SDS011;11739;54.750;9.124;2022-07-22T11:25:06;5.68;;;1.98;;
23140;SDS011;11739;54.750;9.124;2022-07-22T11:27:36;5.90;;;1.67;;
23140;SDS011;11739;54.750;9.124;2022-07-22T11:30:03;6.60;;;2.03;;
23140;SDS011;11739;54.750;9.124;2022-07-22T11:32:32;7.05;;;1.92;;
23140;SDS011;11739;54.750;9.124;2022-07-22T11:34:59;3.25;;;1.65;;
23140;SDS011;11739;54.750;9.124;2022-07-22T11:37:26;6.03;;;1.75;;
23140;SDS011;11739;54.750;9.124;2022-07-22T11:40:00;6.57;;;2.08;;
23140;SDS011;11739;54.750;9.124;2022-07-22T11:42:31;5.55;;;1.90;;
23140;SDS011;11739;54.750;9.124;2022-07-22T11:44:57;5.38;;;1.85;;
23140;SDS011;11739;54.750;9.124;2022-07-22T11:47:24;4.78;;;1.80;;
23140;SDS011;11739;54.750;9.124;2022-07-22T11:49:51;4.80;;;1.65;;
23140;SDS011;11739;54.750;9.124;2022-07-22T11:52:17;4.30;;;1.75;;
23140;SDS011;11739;54.750;9.124;2022-07-22T11:54:44;5.47;;;1.80;;
23140;SDS011;11739;54.750;9.124;2022-07-22T11:57:12;6.07;;;1.98;;
23140;SDS011;11739;54.750;9.124;2022-07-22T11:59:39;9.05;;;2.85;;
23140;SDS011;11739;54.750;9.124;2022-07-22T12:02:06;5.78;;;1.80;;
23140;SDS011;11739;54.750;9.124;2022-07-22T12:04:36;4.00;;;1.30;;
23140;SDS011;11739;54.750;9.124;2022-07-22T12:07:05;5.68;;;1.60;;
23140;SDS011;11739;54.750;9.124;2022-07-22T12:09:33;5.60;;;1.83;;
23140;SDS011;11739;54.750;9.124;2022-07-22T12:12:01;5.13;;;1.60;;
23140;SDS011;11739;54.750;9.124;2022-07-22T12:14:31;3.58;;;1.50;;
23140;SDS011;11739;54.750;9.124;2022-07-22T12:17:06;5.57;;;1.63;;
23140;SDS011;11739;54.750;9.124;2022-07-22T12:19:36;5.75;;;1.60;;
23140;SDS011;11739;54.750;9.124;2022-07-22T12:27:03;5.45;;;1.90;;
23140;SDS011;11739;54.750;9.124;2022-07-22T12:42:46;4.82;;;1.70;;
23140;SDS011;11739;54.750;9.124;2022-07-22T12:45:26;5.95;;;1.70;;
23140;SDS011;11739;54.750;9.124;2022-07-22T12:47:54;4.18;;;1.67;;
23140;SDS011;11739;54.750;9.124;2022-07-22T12:50:33;6.93;;;1.80;;
23140;SDS011;11739;54.750;9.124;2022-07-22T12:53:05;3.58;;;1.77;;
23140;SDS011;11739;54.750;9.124;2022-07-22T12:58:09;7.05;;;1.58;;
23140;SDS011;11739;54.750;9.124;2022-07-22T13:00:37;3.17;;;1.40;;
23140;SDS011;11739;54.750;9.124;2022-07-22T13:03:05;4.22;;;1.73;;
23140;SDS011;11739;54.750;9.124;2022-07-22T13:05:32;5.13;;;1.80;;
23140;SDS011;11739;54.750;9.124;2022-07-22T13:08:00;3.00;;;1.30;;
23140;SDS011;11739;54.750;9.124;2022-07-22T13:10:34;7.15;;;1.73;;
23140;SDS011;11739;54.750;9.124;2022-07-22T13:13:01;3.92;;;1.65;;
23140;SDS011;11739;54.750;9.124;2022-07-22T13:15:28;14.32;;;1.95;;
23140;SDS011;11739;54.750;9.124;2022-07-22T13:17:55;5.47;;;1.90;;
23140;SDS011;11739;54.750;9.124;2022-07-22T13:20:21;5.85;;;1.88;;
23140;SDS011;11739;54.750;9.124;2022-07-22T13:22:49;5.45;;;1.70;;
23140;SDS011;11739;54.750;9.124;2022-07-22T13:25:16;4.47;;;1.80;;
23140;SDS011;11739;54.750;9.124;2022-07-22T13:27:43;4.13;;;1.77;;
23140;SDS011;11739;54.750;9.124;2022-07-22T13:30:10;4.93;;;1.77;;
23140;SDS011;11739;54.750;9.124;2022-07-22T13:32:38;5.18;;;1.85;;
23140;SDS011;11739;54.750;9.124;2022-07-22T13:35:14;5.95;;;2.00;;
23140;SDS011;11739;54.750;9.124;2022-07-22T13:37:41;6.55;;;1.92;;
23140;SDS011;11739;54.750;9.124;2022-07-22T13:40:08;6.75;;;1.90;;
23140;SDS011;11739;54.750;9.124;2022-07-22T13:42:34;4.65;;;1.52;;
23140;SDS011;11739;54.750;9.124;2022-07-22T13:45:01;4.65;;;1.80;;
23140;SDS011;11739;54.750;9.124;2022-07-22T13:47:29;7.13;;;1.98;;
23140;SDS011;11739;54.750;9.124;2022-07-22T13:49:55;7.35;;;2.13;;
23140;SDS011;11739;54.750;9.124;2022-07-22T13:52:22;5.47;;;1.77;;
23140;SDS011;11739;54.750;9.124;2022-07-22T13:54:49;4.95;;;1.42;;
23140;SDS011;11739;54.750;9.124;2022-07-22T13:57:17;6.47;;;2.08;;
23140;SDS011;11739;54.750;9.124;2022-07-22T13:59:44;7.13;;;1.77;;
23140;SDS011;11739;54.750;9.124;2022-07-22T14:02:11;3.90;;;1.60;;
23140;SDS011;11739;54.750;9.124;2022-07-22T14:04:38;7.53;;;1.73;;
23140;SDS011;11739;54.750;9.124;2022-07-22T14:07:05;3.17;;;1.40;;
23140;SDS011;11739;54.750;9.124;2022-07-22T14:09:37;2.90;;;1.50;;
23140;SDS011;11739;54.750;9.124;2022-07-22T14:12:04;5.53;;;1.58;;
23140;SDS011;11739;54.750;9.124;2022-07-22T14:14:30;5.40;;;1.77;;
23140;SDS011;11739;54.750;9.124;2022-07-22T14:16:57;5.63;;;1.67;;
23140;SDS011;11739;54.750;9.124;2022-07-22T14:19:26;4.43;;;1.58;;
23140;SDS011;11739;54.750;9.124;2022-07-22T14:21:52;5.13;;;1.98;;
23140;SDS011;11739;54.750;9.124;2022-07-22T14:24:19;4.70;;;1.40;;
23140;SDS011;11739;54.750;9.124;2022-07-22T14:26:46;5.55;;;2.05;;
23140;SDS011;11739;54.750;9.124;2022-07-22T14:29:12;3.95;;;1.98;;
23140;SDS011;11739;54.750;9.124;2022-07-22T14:31:39;7.72;;;2.08;;
23140;SDS011;11739;54.750;9.124;2022-07-22T14:34:06;6.03;;;1.83;;
23140;SDS011;11739;54.750;9.124;2022-07-22T14:36:32;5.97;;;2.00;;
23140;SDS011;11739;54.750;9.124;2022-07-22T14:38:59;4.75;;;1.75;;
23140;SDS011;11739;54.750;9.124;2022-07-22T14:41:26;3.92;;;1.60;;
23140;SDS011;11739;54.750;9.124;2022-07-22T14:43:52;4.80;;;2.00;;
23140;SDS011;11739;54.750;9.124;2022-07-22T14:46:19;4.15;;;1.63;;
23140;SDS011;11739;54.750;9.124;2022-07-22T14:48:46;5.30;;;1.38;;
23140;SDS011;11739;54.750;9.124;2022-07-22T14:51:15;3.92;;;1.60;;
23140;SDS011;11739;54.750;9.124;2022-07-22T14:53:41;8.15;;;2.20;;
23140;SDS011;11739;54.750;9.124;2022-07-22T14:56:08;6.20;;;2.10;;
23140;SDS011;11739;54.750;9.124;2022-07-22T14:58:35;4.63;;;1.65;;
23140;SDS011;11739;54.750;9.124;2022-07-22T15:01:02;8.18;;;1.83;;
23140;SDS011;11739;54.750;9.124;2022-07-22T15:03:28;4.50;;;2.00;;
23140;SDS011;11739;54.750;9.124;2022-07-22T15:05:55;4.82;;;1.60;;
23140;SDS011;11739;54.750;9.124;2022-07-22T15:08:21;5.07;;;1.80;;
23140;SDS011;11739;54.750;9.124;2022-07-22T15:10:48;4.65;;;1.75;;
23140;SDS011;11739;54.750;9.124;2022-07-22T15:13:32;4.50;;;1.60;;
23140;SDS011;11739;54.750;9.124;2022-07-22T15:16:52;8.82;;;1.98;;
23140;SDS011;11739;54.750;9.124;2022-07-22T15:22:27;4.05;;;1.75;;
23140;SDS011;11739;54.750;9.124;2022-07-22T15:25:02;6.88;;;1.92;;
23140;SDS011;11739;54.750;9.124;2022-07-22T15:27:35;4.90;;;1.77;;
23140;SDS011;11739;54.750;9.124;2022-07-22T15:30:29;5.05;;;1.77;;
23140;SDS011;11739;54.750;9.124;2022-07-22T15:33:13;5.93;;;2.00;;